sensor_id;sensor_type;location;lat;lon;timestamp;P1;durP1;ratioP1;P2;durP2;ratioP2
22521;SDS011;11427;51.062;17.044;2022-11-09T00:02:47;32.00;;;21.42;;
22521;SDS011;11427;51.062;17.044;2022-11-09T00:17:49;36.05;;;21.58;;
22521;SDS011;11427;51.062;17.044;2022-11-09T00:32:50;34.20;;;21.95;;
22521;SDS011;11427;51.062;17.044;2022-11-09T00:47:52;31.92;;;20.92;;
22521;SDS011;11427;51.062;17.044;2022-11-09T01:02:54;33.50;;;21.92;;
22521;SDS011;11427;51.062;17.044;2022-11-09T01:17:56;34.13;;;21.75;;
22521;SDS011;11427;51.062;17.044;2022-11-09T01:32:58;37.60;;;22.85;;
22521;SDS011;11427;51.062;17.044;2022-11-09T01:48:03;32.20;;;21.77;;
22521;SDS011;11427;51.062;17.044;2022-11-09T02:03:34;36.47;;;22.92;;
22521;SDS011;11427;51.062;17.044;2022-11-09T02:18:38;36.83;;;23.92;;
22521;SDS011;11427;51.062;17.044;2022-11-09T02:33:52;30.03;;;20.10;;
22521;SDS011;11427;51.062;17.044;2022-11-09T02:48:55;35.70;;;23.20;;
22521;SDS011;11427;51.062;17.044;2022-11-09T03:03:57;39.42;;;25.45;;
22521;SDS011;11427;51.062;17.044;2022-11-09T03:18:59;35.88;;;22.35;;
22521;SDS011;11427;51.062;17.044;2022-11-09T03:34:01;34.63;;;21.65;;
22521;SDS011;11427;51.062;17.044;2022-11-09T03:49:03;43.78;;;26.80;;
22521;SDS011;11427;51.062;17.044;2022-11-09T04:04:05;34.97;;;22.88;;
22521;SDS011;11427;51.062;17.044;2022-11-09T04:19:07;32.75;;;20.02;;
22521;SDS011;11427;51.062;17.044;2022-11-09T04:34:09;40.35;;;24.35;;
22521;SDS011;11427;51.062;17.044;2022-11-09T04:49:11;34.60;;;21.98;;
22521;SDS011;11427;51.062;17.044;2022-11-09T05:04:12;36.42;;;22.88;;
22521;SDS011;11427;51.062;17.044;2022-11-09T05:19:14;34.13;;;21.15;;
22521;SDS011;11427;51.062;17.044;2022-11-09T05:34:16;38.70;;;22.73;;
22521;SDS011;11427;51.062;17.044;2022-11-09T05:49:18;33.95;;;21.35;;
22521;SDS011;11427;51.062;17.044;2022-11-09T06:04:20;43.95;;;27.67;;
22521;SDS011;11427;51.062;17.044;2022-11-09T06:19:22;33.63;;;21.05;;
22521;SDS011;11427;51.062;17.044;2022-11-09T06:34:24;45.63;;;27.10;;
22521;SDS011;11427;51.062;17.044;2022-11-09T06:49:26;43.58;;;27.10;;
22521;SDS011;11427;51.062;17.044;2022-11-09T07:04:28;61.03;;;27.40;;
22521;SDS011;11427;51.062;17.044;2022-11-09T07:19:30;42.55;;;26.30;;
22521;SDS011;11427;51.062;17.044;2022-11-09T07:34:32;50.80;;;28.30;;
22521;SDS011;11427;51.062;17.044;2022-11-09T07:49:34;50.70;;;30.58;;
22521;SDS011;11427;51.062;17.044;2022-11-09T08:04:35;47.53;;;28.25;;
22521;SDS011;11427;51.062;17.044;2022-11-09T08:19:37;42.03;;;26.38;;
22521;SDS011;11427;51.062;17.044;2022-11-09T08:34:39;39.95;;;24.27;;
22521;SDS011;11427;51.062;17.044;2022-11-09T08:49:41;34.92;;;21.77;;
22521;SDS011;11427;51.062;17.044;2022-11-09T09:04:44;35.45;;;22.75;;
22521;SDS011;11427;51.062;17.044;2022-11-09T09:19:46;28.02;;;18.73;;
22521;SDS011;11427;51.062;17.044;2022-11-09T09:34:50;29.20;;;19.83;;
22521;SDS011;11427;51.062;17.044;2022-11-09T10:04:58;25.27;;;17.90;;
22521;SDS011;11427;51.062;17.044;2022-11-09T10:35:29;30.73;;;19.23;;
22521;SDS011;11427;51.062;17.044;2022-11-09T11:05:59;28.75;;;18.98;;
22521;SDS011;11427;51.062;17.044;2022-11-09T11:21:05;25.92;;;17.35;;
22521;SDS011;11427;51.062;17.044;2022-11-09T11:51:57;25.55;;;17.50;;
22521;SDS011;11427;51.062;17.044;2022-11-09T12:37:52;22.88;;;14.63;;
22521;SDS011;11427;51.062;17.044;2022-11-09T12:53:09;24.08;;;15.65;;
22521;SDS011;11427;51.062;17.044;2022-11-09T13:08:23;25.73;;;17.73;;
22521;SDS011;11427;51.062;17.044;2022-11-09T13:54:31;28.08;;;18.23;;
22521;SDS011;11427;51.062;17.044;2022-11-09T14:25:18;28.65;;;19.00;;
22521;SDS011;11427;51.062;17.044;2022-11-09T14:55:32;39.42;;;22.35;;
22521;SDS011;11427;51.062;17.044;2022-11-09T15:10:37;39.60;;;24.40;;
22521;SDS011;11427;51.062;17.044;2022-11-09T15:40:41;38.80;;;23.33;;
22521;SDS011;11427;51.062;17.044;2022-11-09T15:55:43;47.47;;;28.48;;
22521;SDS011;11427;51.062;17.044;2022-11-09T16:10:45;47.33;;;27.45;;
22521;SDS011;11427;51.062;17.044;2022-11-09T16:25:47;40.47;;;24.83;;
22521;SDS011;11427;51.062;17.044;2022-11-09T16:40:49;42.10;;;24.27;;
22521;SDS011;11427;51.062;17.044;2022-11-09T16:55:51;46.00;;;26.38;;
22521;SDS011;11427;51.062;17.044;2022-11-09T17:10:54;52.05;;;30.83;;
22521;SDS011;11427;51.062;17.044;2022-11-09T17:26:02;44.13;;;26.88;;
22521;SDS011;11427;51.062;17.044;2022-11-09T17:41:06;42.63;;;26.85;;
22521;SDS011;11427;51.062;17.044;2022-11-09T17:56:13;35.90;;;23.73;;
22521;SDS011;11427;51.062;17.044;2022-11-09T18:11:15;41.95;;;27.08;;
22521;SDS011;11427;51.062;17.044;2022-11-09T18:26:18;48.72;;;29.60;;
22521;SDS011;11427;51.062;17.044;2022-11-09T18:41:21;45.47;;;26.67;;
22521;SDS011;11427;51.062;17.044;2022-11-09T18:56:24;47.38;;;29.80;;
22521;SDS011;11427;51.062;17.044;2022-11-09T19:11:26;58.92;;;35.15;;
22521;SDS011;11427;51.062;17.044;2022-11-09T19:26:30;48.67;;;28.42;;
22521;SDS011;11427;51.062;17.044;2022-11-09T19:41:32;60.42;;;36.95;;
22521;SDS011;11427;51.062;17.044;2022-11-09T19:56:34;69.68;;;41.88;;
22521;SDS011;11427;51.062;17.044;2022-11-09T20:11:37;51.65;;;31.23;;
22521;SDS011;11427;51.062;17.044;2022-11-09T20:26:59;52.35;;;31.27;;
22521;SDS011;11427;51.062;17.044;2022-11-09T20:42:00;56.72;;;33.25;;
22521;SDS011;11427;51.062;17.044;2022-11-09T20:57:02;53.65;;;32.78;;
22521;SDS011;11427;51.062;17.044;2022-11-09T21:12:04;63.35;;;34.25;;
22521;SDS011;11427;51.062;17.044;2022-11-09T21:27:21;57.22;;;32.97;;
22521;SDS011;11427;51.062;17.044;2022-11-09T21:42:48;45.67;;;27.70;;
22521;SDS011;11427;51.062;17.044;2022-11-09T21:57:50;43.70;;;25.88;;
22521;SDS011;11427;51.062;17.044;2022-11-09T22:12:51;41.90;;;24.77;;
22521;SDS011;11427;51.062;17.044;2022-11-09T22:28:12;36.22;;;22.83;;
22521;SDS011;11427;51.062;17.044;2022-11-09T22:43:14;37.47;;;22.15;;
22521;SDS011;11427;51.062;17.044;2022-11-09T22:58:16;38.15;;;21.95;;
22521;SDS011;11427;51.062;17.044;2022-11-09T23:13:18;32.88;;;20.73;;
22521;SDS011;11427;51.062;17.044;2022-11-09T23:28:20;36.00;;;22.25;;
22521;SDS011;11427;51.062;17.044;2022-11-09T23:43:23;41.42;;;25.83;;
22521;SDS011;11427;51.062;17.044;2022-11-09T23:58:25;33.42;;;20.88;;
